Time;durP1;ratioP1;P1;durP2;ratioP2;P2;SDS_P1;SDS_P2;PMS_P1;PMS_P2;Temp;Humidity;BMP_temperature;BMP_pressure;BME280_temperature;BME280_humidity;BME280_pressure;Samples;Min_cycle;Max_cycle;Signal;HPM_P1;HPM_P2
2022/07/09 00:02:04;;;;;;;2.58;1.17;;;;;;;17.41;100.00;102910.16;5010481;28;20046;-33
2022/07/09 00:04:32;;;;;;;2.38;1.40;;;;;;;17.44;100.00;102914.38;5010317;28;20067;-39
2022/07/09 00:07:00;;;;;;;3.90;1.60;;;;;;;17.47;100.00;102911.81;5011209;28;20054;-40
2022/07/09 00:09:28;;;;;;;2.40;1.20;;;;;;;17.49;100.00;102911.50;5010812;28;20426;-37
2022/07/09 00:11:56;;;;;;;2.45;1.30;;;;;;;17.50;100.00;102905.56;5010869;28;20454;-33
2022/07/09 00:14:25;;;;;;;2.40;1.05;;;;;;;17.51;100.00;102903.59;5010545;28;20546;-37
2022/07/09 00:16:53;;;;;;;2.25;1.23;;;;;;;17.53;100.00;102893.69;5011343;28;20080;-38
2022/07/09 00:19:21;;;;;;;3.22;1.20;;;;;;;17.56;100.00;102880.97;5011204;28;20124;-37
2022/07/09 00:21:49;;;;;;;3.60;1.30;;;;;;;17.58;100.00;102889.13;5010514;28;20145;-33
2022/07/09 00:24:17;;;;;;;3.20;1.10;;;;;;;17.60;100.00;102900.94;5013882;28;20058;-40
2022/07/09 00:26:44;;;;;;;3.33;1.35;;;;;;;17.62;100.00;102904.31;5015090;28;20164;-39
2022/07/09 00:29:12;;;;;;;3.28;1.40;;;;;;;17.63;100.00;102906.00;5014150;28;20040;-36
2022/07/09 00:31:41;;;;;;;2.45;1.00;;;;;;;17.64;100.00;102908.56;5014745;28;20058;-38
2022/07/09 00:34:09;;;;;;;2.75;1.25;;;;;;;17.65;100.00;102912.22;5014570;28;20041;-35
2022/07/09 00:36:37;;;;;;;2.30;1.13;;;;;;;17.67;100.00;102909.97;5012781;28;20041;-38
2022/07/09 00:39:05;;;;;;;3.38;1.48;;;;;;;17.69;100.00;102910.50;5013975;28;20042;-34
2022/07/09 00:41:33;;;;;;;4.70;1.30;;;;;;;17.71;100.00;102911.06;5014997;28;20133;-38
2022/07/09 00:44:01;;;;;;;4.65;1.40;;;;;;;17.72;100.00;102895.78;5013642;28;20157;-34
2022/07/09 00:46:29;;;;;;;3.05;1.27;;;;;;;17.72;100.00;102892.97;5014649;28;20121;-39
2022/07/09 00:49:03;;;;;;;2.95;1.30;;;;;;;17.74;100.00;102893.50;5014201;28;20052;-40
2022/07/09 00:51:31;;;;;;;4.18;1.55;;;;;;;17.74;100.00;102904.81;5013748;28;20058;-34
2022/07/09 00:54:00;;;;;;;2.08;1.00;;;;;;;17.74;100.00;102900.00;5014236;28;20088;-33
2022/07/09 00:56:30;;;;;;;2.58;1.10;;;;;;;17.73;100.00;102889.84;5013820;28;20056;-33
2022/07/09 00:58:58;;;;;;;3.28;1.40;;;;;;;17.76;100.00;102897.72;5013778;28;20503;-38
2022/07/09 01:01:27;;;;;;;2.03;1.10;;;;;;;17.78;100.00;102894.59;5014457;28;20073;-37
2022/07/09 01:03:55;;;;;;;2.20;1.15;;;;;;;17.78;100.00;102894.59;5013062;28;20071;-33
2022/07/09 01:06:24;;;;;;;2.47;1.00;;;;;;;17.78;100.00;102894.59;5014550;28;20136;-34
2022/07/09 01:08:52;;;;;;;2.30;1.08;;;;;;;17.77;100.00;102888.13;5013950;28;20163;-37
2022/07/09 01:11:20;;;;;;;2.05;1.10;;;;;;;17.78;100.00;102886.13;5013377;28;20553;-33
2022/07/09 01:13:47;;;;;;;2.25;1.15;;;;;;;17.80;100.00;102879.03;5013863;28;20065;-34
2022/07/09 01:16:15;;;;;;;3.67;1.40;;;;;;;17.81;100.00;102874.22;5013992;28;20068;-42
2022/07/09 01:18:44;;;;;;;2.85;1.40;;;;;;;17.83;100.00;102878.44;5013057;28;20491;-34
2022/07/09 01:21:14;;;;;;;2.42;1.02;;;;;;;17.82;100.00;102862.63;5013894;28;20145;-33
2022/07/09 01:23:42;;;;;;;2.75;1.00;;;;;;;17.83;100.00;102866.28;5013909;28;20133;-42
2022/07/09 01:26:10;;;;;;;3.47;1.35;;;;;;;17.83;100.00;102864.31;5012899;28;20064;-40
2022/07/09 01:28:38;;;;;;;2.50;1.00;;;;;;;17.85;100.00;102849.88;5013741;28;20070;-34
2022/07/09 01:31:05;;;;;;;2.33;0.93;;;;;;;17.83;100.00;102855.84;5013307;28;20058;-33
2022/07/09 01:33:34;;;;;;;2.47;1.20;;;;;;;17.86;100.00;102860.03;5013197;28;20137;-35
2022/07/09 01:36:01;;;;;;;1.80;0.93;;;;;;;17.87;100.00;102862.56;5013400;28;20069;-38
2022/07/09 01:38:31;;;;;;;2.80;1.20;;;;;;;17.88;100.00;102855.78;5013340;28;20517;-33
2022/07/09 01:40:59;;;;;;;2.55;1.08;;;;;;;17.90;100.00;102847.84;5013044;28;20056;-33
2022/07/09 01:43:27;;;;;;;3.17;1.13;;;;;;;17.91;100.00;102837.41;5013512;28;20418;-33
2022/07/09 01:45:55;;;;;;;1.70;0.85;;;;;;;17.93;100.00;102828.63;5012558;28;20132;-40
2022/07/09 01:48:23;;;;;;;2.25;0.95;;;;;;;17.96;100.00;102833.69;5013512;28;20388;-30
2022/07/09 01:50:53;;;;;;;3.10;1.10;;;;;;;17.97;100.00;102839.03;5012807;28;20132;-38
2022/07/09 01:53:21;;;;;;;1.50;0.80;;;;;;;17.99;100.00;102827.41;5012721;28;20092;-34
2022/07/09 01:55:50;;;;;;;2.55;0.98;;;;;;;18.00;100.00;102823.44;5012947;28;20045;-33
2022/07/09 01:58:18;;;;;;;3.13;0.95;;;;;;;18.02;100.00;102816.34;5013244;28;20060;-43
2022/07/09 02:00:46;;;;;;;3.25;1.30;;;;;;;18.03;100.00;102806.72;5012148;28;20137;-38
2022/07/09 02:03:14;;;;;;;3.08;0.98;;;;;;;18.04;100.00;102808.41;5013168;28;20041;-33
2022/07/09 02:05:42;;;;;;;2.63;0.90;;;;;;;18.04;100.00;102799.09;5012740;28;20054;-34
2022/07/09 02:08:09;;;;;;;3.45;1.23;;;;;;;18.05;100.00;102797.94;5012397;28;20052;-34
2022/07/09 02:10:38;;;;;;;2.42;0.95;;;;;;;18.07;100.00;102790.84;5012557;28;20038;-34
2022/07/09 02:13:07;;;;;;;2.45;0.95;;;;;;;18.09;100.00;102794.22;5012241;28;20375;-33
2022/07/09 02:15:35;;;;;;;2.65;0.80;;;;;;;18.11;100.00;102791.09;5011950;28;20081;-40
2022/07/09 02:18:04;;;;;;;2.03;1.00;;;;;;;18.10;100.00;102787.44;5012609;28;20049;-35
2022/07/09 02:20:32;;;;;;;2.53;1.00;;;;;;;18.12;100.00;102790.78;5012804;28;20053;-33
2022/07/09 02:23:00;;;;;;;2.17;0.90;;;;;;;18.13;100.00;102789.66;5010802;28;20056;-35
2022/07/09 02:25:28;;;;;;;2.33;1.05;;;;;;;18.13;100.00;102784.00;5012729;28;20065;-36
2022/07/09 02:27:56;;;;;;;3.03;1.10;;;;;;;18.14;100.00;102785.69;5012025;28;20470;-42
2022/07/09 02:30:25;;;;;;;2.10;0.80;;;;;;;18.16;100.00;102782.56;5012846;28;20574;-41
2022/07/09 02:32:53;;;;;;;1.90;0.90;;;;;;;18.16;100.00;102788.22;5012304;28;20044;-36
2022/07/09 02:35:21;;;;;;;2.00;0.80;;;;;;;18.16;100.00;102789.03;5011935;28;20128;-40
2022/07/09 02:37:48;;;;;;;2.15;0.80;;;;;;;18.16;100.00;102786.22;5012039;28;20478;-34
2022/07/09 02:40:16;;;;;;;1.67;0.90;;;;;;;18.18;100.00;102774.63;5012460;28;20499;-40
2022/07/09 02:42:44;;;;;;;2.25;0.85;;;;;;;18.19;100.00;102790.41;5011533;28;20410;-33
2022/07/09 02:45:12;;;;;;;2.08;1.00;;;;;;;18.18;100.00;102781.09;5012103;28;20132;-38
2022/07/09 02:47:41;;;;;;;1.80;0.90;;;;;;;18.19;100.00;102784.75;5012067;28;20073;-33
2022/07/09 02:50:10;;;;;;;2.78;1.08;;;;;;;18.19;100.00;102790.41;5011401;28;20049;-33
2022/07/09 02:52:37;;;;;;;1.98;0.95;;;;;;;18.17;100.00;102785.06;5012089;28;20518;-38
2022/07/09 02:55:06;;;;;;;3.65;1.23;;;;;;;18.16;100.00;102786.22;5011827;28;20042;-35
2022/07/09 02:57:34;;;;;;;2.80;1.15;;;;;;;18.15;100.00;102787.38;5010995;28;20050;-43
2022/07/09 03:00:02;;;;;;;2.35;0.93;;;;;;;18.14;100.00;102782.84;5012165;28;20403;-37
2022/07/09 03:02:29;;;;;;;1.90;0.85;;;;;;;18.11;100.00;102780.63;5011720;28;20042;-35
2022/07/09 03:04:59;;;;;;;2.08;0.90;;;;;;;18.10;100.00;102770.47;5011316;28;20129;-33
2022/07/09 03:07:26;;;;;;;2.40;0.80;;;;;;;18.08;100.00;102772.75;5012072;28;20038;-33
2022/07/09 03:09:54;;;;;;;2.28;0.98;;;;;;;18.07;100.00;102773.06;5010592;28;20447;-38
2022/07/09 03:12:22;;;;;;;2.40;1.10;;;;;;;18.07;100.00;102775.88;5011657;28;20144;-33
2022/07/09 03:14:50;;;;;;;1.65;0.88;;;;;;;18.06;100.00;102775.03;5011699;28;20157;-38
2022/07/09 03:17:17;;;;;;;3.80;1.27;;;;;;;18.07;100.00;102761.75;5011070;28;20057;-35
2022/07/09 03:19:45;;;;;;;3.88;1.20;;;;;;;18.07;100.00;102756.09;5011633;28;20493;-33
2022/07/09 03:22:14;;;;;;;2.25;0.90;;;;;;;18.08;100.00;102757.78;5012078;28;20054;-33
2022/07/09 03:24:42;;;;;;;1.70;0.80;;;;;;;18.08;100.00;102757.78;5010107;28;20092;-33
2022/07/09 03:27:10;;;;;;;2.13;0.90;;;;;;;18.08;100.00;102752.97;5011639;28;20065;-33
2022/07/09 03:29:38;;;;;;;1.80;0.90;;;;;;;18.09;100.00;102760.31;5011053;28;20049;-36
2022/07/09 03:32:07;;;;;;;3.20;1.45;;;;;;;18.10;100.00;102756.34;5011014;28;20054;-33
2022/07/09 03:34:35;;;;;;;5.32;1.27;;;;;;;18.11;100.00;102758.03;5011167;28;20507;-34
2022/07/09 03:37:02;;;;;;;2.20;0.90;;;;;;;18.13;100.00;102760.56;5011701;28;20505;-33
2022/07/09 03:39:32;;;;;;;1.60;0.80;;;;;;;18.13;100.00;102761.41;5010572;28;20577;-36
2022/07/09 03:42:00;;;;;;;1.92;0.93;;;;;;;18.12;100.00;102759.72;5011810;28;20061;-34
2022/07/09 03:44:28;;;;;;;1.98;0.98;;;;;;;18.12;100.00;102762.53;5011198;28;20053;-33
2022/07/09 03:46:55;;;;;;;3.15;1.40;;;;;;;18.11;100.00;102751.53;5010902;28;20046;-41
2022/07/09 03:49:23;;;;;;;2.90;1.13;;;;;;;18.10;100.00;102756.34;5011395;28;20056;-33
2022/07/09 03:51:51;;;;;;;2.13;1.02;;;;;;;18.07;100.00;102762.59;5011517;28;20141;-35
2022/07/09 03:54:40;;;;;;;3.03;1.33;;;;;;;18.04;100.00;102759.53;5011135;28;20034;-36
2022/07/09 03:57:08;;;;;;;3.47;1.67;;;;;;;18.01;100.00;102751.66;5001298;28;20042;-34
2022/07/09 03:59:36;;;;;;;3.25;1.27;;;;;;;17.99;100.00;102749.13;5014646;28;20136;-34
2022/07/09 04:02:05;;;;;;;3.65;1.40;;;;;;;17.97;100.00;102756.25;5015285;28;20050;-36
2022/07/09 04:04:39;;;;;;;4.80;1.73;;;;;;;17.94;100.00;102752.06;5014768;28;20045;-33
2022/07/09 04:07:07;;;;;;;2.63;1.60;;;;;;;17.94;100.00;102757.69;5013981;28;20037;-32
2022/07/09 04:09:35;;;;;;;2.80;1.67;;;;;;;17.94;100.00;102751.22;5014454;28;20808;-33
2022/07/09 04:12:05;;;;;;;2.53;1.50;;;;;;;17.91;100.00;102747.00;5013819;28;20054;-40
2022/07/09 04:14:32;;;;;;;3.45;1.70;;;;;;;17.90;100.00;102750.97;5013981;28;20064;-37
2022/07/09 04:17:00;;;;;;;4.03;1.73;;;;;;;17.90;100.00;102746.16;5014487;28;20082;-34
2022/07/09 04:19:28;;;;;;;4.50;1.65;;;;;;;17.89;100.00;102744.47;5014595;28;20046;-33
2022/07/09 04:21:56;;;;;;;3.58;2.05;;;;;;;17.90;100.00;102743.34;5013509;28;20042;-42
2022/07/09 04:24:24;;;;;;;2.70;1.80;;;;;;;17.92;100.00;102740.22;5014717;28;20046;-40
2022/07/09 04:26:51;;;;;;;4.25;2.10;;;;;;;17.93;100.00;102752.34;5013120;28;20153;-37
2022/07/09 04:29:21;;;;;;;3.22;1.48;;;;;;;17.93;100.00;102756.03;5014268;28;20053;-40
2022/07/09 04:31:48;;;;;;;3.40;1.75;;;;;;;17.92;100.00;102751.50;5013986;28;20050;-37
2022/07/09 04:34:16;;;;;;;2.78;1.50;;;;;;;17.93;100.00;102753.19;5014581;28;20054;-36
2022/07/09 04:36:44;;;;;;;4.95;1.70;;;;;;;17.93;100.00;102753.19;5013521;28;20056;-33
2022/07/09 04:39:12;;;;;;;2.28;1.10;;;;;;;17.94;100.00;102754.03;5014473;28;20132;-36
2022/07/09 04:41:40;;;;;;;3.25;1.17;;;;;;;17.97;100.00;102745.81;5012870;28;20565;-33
2022/07/09 04:44:08;;;;;;;4.95;1.60;;;;;;;17.98;100.00;102749.47;5014304;28;20196;-33
2022/07/09 04:46:37;;;;;;;2.03;1.25;;;;;;;17.98;100.00;102757.94;5013723;28;20048;-35
2022/07/09 04:49:05;;;;;;;3.33;1.50;;;;;;;17.97;100.00;102756.25;5013139;28;20081;-33
2022/07/09 04:51:32;;;;;;;2.80;1.30;;;;;;;17.98;100.00;102763.59;5013528;28;20054;-40
2022/07/09 04:54:00;;;;;;;4.13;1.50;;;;;;;17.98;100.00;102770.09;4994416;28;20163;-34
2022/07/09 04:56:28;;;;;;;3.95;1.88;;;;;;;17.99;100.00;102766.09;5001646;28;20060;-35
2022/07/09 04:58:56;;;;;;;3.67;1.58;;;;;;;18.00;100.00;102766.94;5013934;28;20050;-33
2022/07/09 05:01:24;;;;;;;4.72;1.60;;;;;;;17.99;100.00;102763.25;5013382;28;20122;-40
2022/07/09 05:03:53;;;;;;;5.22;1.60;;;;;;;18.02;100.00;102761.81;4997436;28;20510;-33
2022/07/09 05:06:21;;;;;;;4.55;1.40;;;;;;;18.02;100.00;102759.84;4999002;28;20050;-33
2022/07/09 05:08:50;;;;;;;3.40;1.48;;;;;;;18.04;100.00;102749.06;5013031;28;20137;-39
2022/07/09 05:11:17;;;;;;;4.00;1.38;;;;;;;18.06;100.00;102760.91;5012835;28;20034;-33
2022/07/09 05:13:46;;;;;;;3.67;1.50;;;;;;;18.08;100.00;102752.13;5013594;28;20050;-41
2022/07/09 05:16:15;;;;;;;5.53;1.67;;;;;;;18.10;100.00;102749.84;5014052;28;20423;-34
2022/07/09 05:18:43;;;;;;;2.28;1.30;;;;;;;18.11;100.00;102748.72;5009753;28;20049;-42
2022/07/09 05:21:12;;;;;;;2.95;1.08;;;;;;;18.14;100.00;102751.78;5014182;28;20108;-34
2022/07/09 05:23:40;;;;;;;3.78;1.20;;;;;;;18.16;100.00;102746.66;5012201;28;20148;-33
2022/07/09 05:26:08;;;;;;;5.50;1.25;;;;;;;18.20;100.00;102744.88;5014105;28;20133;-35
2022/07/09 05:28:35;;;;;;;2.85;1.05;;;;;;;18.21;100.00;102762.69;5013456;28;20053;-39
2022/07/09 05:31:04;;;;;;;2.55;0.95;;;;;;;18.21;100.00;102759.84;5013405;28;20046;-34
2022/07/09 05:33:52;;;;;;;4.63;1.10;;;;;;;18.21;100.00;102765.50;5013468;28;20042;-39
2022/07/09 05:36:21;;;;;;;2.67;1.13;;;;;;;18.22;100.00;102758.72;5013928;28;20050;-39
2022/07/09 05:38:49;;;;;;;2.47;1.20;;;;;;;18.22;100.00;102751.06;5012513;28;20049;-39
2022/07/09 05:41:18;;;;;;;4.85;1.00;;;;;;;18.24;100.00;102759.25;5013792;28;20052;-33
2022/07/09 05:43:46;;;;;;;2.10;0.98;;;;;;;18.26;100.00;102768.25;5013381;28;20054;-36
2022/07/09 05:46:13;;;;;;;3.75;1.20;;;;;;;18.28;100.00;102768.81;5012831;28;20479;-37
2022/07/09 05:48:41;;;;;;;3.78;0.90;;;;;;;18.30;100.00;102765.66;5013120;28;20527;-35
2022/07/09 05:51:09;;;;;;;3.08;0.90;;;;;;;18.33;100.00;102767.88;5013393;28;20050;-37
2022/07/09 05:53:38;;;;;;;3.97;1.00;;;;;;;18.37;100.00;102769.81;5012422;28;20042;-33
2022/07/09 05:56:07;;;;;;;4.13;1.33;;;;;;;18.41;100.00;102767.19;5023020;28;20049;-33
2022/07/09 05:58:35;;;;;;;3.13;0.95;;;;;;;18.43;100.00;102768.56;5013090;28;20048;-38
2022/07/09 06:01:05;;;;;;;3.03;0.90;;;;;;;18.46;100.00;102772.78;5012674;28;20069;-41
2022/07/09 06:03:33;;;;;;;3.42;0.80;;;;;;;18.47;100.00;102768.81;5012517;28;20459;-37
2022/07/09 06:06:00;;;;;;;4.30;1.10;;;;;;;18.48;100.00;102779.81;5012295;28;20042;-35
2022/07/09 06:08:28;;;;;;;3.63;1.10;;;;;;;18.51;100.00;102778.34;5013125;28;20183;-35
2022/07/09 06:10:57;;;;;;;2.38;0.80;;;;;;;18.54;100.00;102778.59;5012403;28;20121;-38
2022/07/09 06:13:25;;;;;;;3.70;1.15;;;;;;;18.57;100.00;102775.16;5012379;28;20049;-40
2022/07/09 06:15:53;;;;;;;2.85;0.90;;;;;;;18.60;100.00;102773.69;5012729;28;20140;-39
2022/07/09 06:18:21;;;;;;;4.65;0.90;;;;;;;18.61;100.00;102772.56;5013067;28;20075;-33
2022/07/09 06:20:49;;;;;;;3.40;1.30;;;;;;;18.64;100.00;102782.41;5008009;28;20042;-34
2022/07/09 06:23:17;;;;;;;2.63;0.73;;;;;;;18.66;100.00;102786.63;4993589;28;20471;-35
2022/07/09 06:25:45;;;;;;;4.25;1.10;;;;;;;18.73;100.00;102775.78;5012346;28;20054;-38
2022/07/09 06:28:14;;;;;;;3.88;0.90;;;;;;;18.78;100.00;102772.03;5012576;28;20410;-34
2022/07/09 06:30:43;;;;;;;3.00;0.90;;;;;;;18.82;100.00;102765.41;5012872;28;20141;-41
2022/07/09 06:33:11;;;;;;;4.35;1.08;;;;;;;18.86;100.00;102760.00;5012808;28;20044;-34
2022/07/09 06:35:39;;;;;;;3.50;1.00;;;;;;;18.90;100.00;102770.38;5011543;28;20038;-33
2022/07/09 06:38:07;;;;;;;4.40;1.00;;;;;;;18.93;100.00;102774.59;5012390;28;20049;-35
2022/07/09 06:40:34;;;;;;;2.92;0.85;;;;;;;18.96;100.00;102767.47;5011927;28;20044;-37
2022/07/09 06:43:03;;;;;;;2.83;0.80;;;;;;;18.99;100.00;102753.53;5011470;28;20045;-36
2022/07/09 06:45:43;;;;;;;4.30;0.98;;;;;;;19.04;100.00;102764.75;5010181;28;20466;-38
2022/07/09 06:48:11;;;;;;;3.33;0.90;;;;;;;19.13;100.00;102764.91;5011354;28;20422;-34
2022/07/09 06:50:39;;;;;;;2.90;0.90;;;;;;;19.20;100.00;102751.16;5011835;28;20052;-39
2022/07/09 06:53:07;;;;;;;2.58;0.70;;;;;;;19.28;100.00;102758.94;5011525;28;20472;-33
2022/07/09 06:55:34;;;;;;;3.63;1.08;;;;;;;19.35;100.00;102759.38;5010672;28;20125;-34
2022/07/09 06:58:02;;;;;;;2.47;0.75;;;;;;;19.41;100.00;102760.09;5011867;28;20050;-34
2022/07/09 07:00:30;;;;;;;5.32;1.10;;;;;;;19.50;100.00;102770.44;5011549;28;20136;-33
2022/07/09 07:02:59;;;;;;;5.53;1.10;;;;;;;19.55;100.00;102763.84;5011228;28;20438;-45
2022/07/09 07:05:28;;;;;;;2.72;0.80;;;;;;;19.58;100.00;102766.84;5011237;28;20042;-34
2022/07/09 07:07:56;;;;;;;6.18;1.27;;;;;;;19.60;100.00;102769.38;5011856;28;20132;-33
2022/07/09 07:10:24;;;;;;;2.33;0.90;;;;;;;19.61;100.00;102773.88;5007899;28;20053;-33
2022/07/09 07:12:54;;;;;;;3.10;0.90;;;;;;;19.67;100.00;102766.13;5010865;28;20490;-38
2022/07/09 07:15:22;;;;;;;2.42;0.65;;;;;;;19.71;100.00;102770.84;5010597;28;20157;-39
2022/07/09 07:17:50;;;;;;;3.38;0.80;;;;;;;19.79;100.00;102769.25;5010433;28;20483;-41
2022/07/09 07:20:26;;;;;;;4.22;0.90;;;;;;;19.87;100.00;102771.38;5010268;28;20092;-35
2022/07/09 07:22:54;;;;;;;4.55;0.95;;;;;;;19.95;100.00;102782.81;5004194;28;20053;-38
2022/07/09 07:25:22;;;;;;;3.78;1.00;;;;;;;20.02;100.00;102790.03;5004274;28;20487;-34
2022/07/09 07:27:50;;;;;;;3.85;0.80;;;;;;;20.10;100.00;102781.63;5010312;28;20157;-33
2022/07/09 07:30:18;;;;;;;4.32;1.00;;;;;;;20.20;100.00;102783.38;5010320;28;20136;-34
2022/07/09 07:32:46;;;;;;;4.80;1.40;;;;;;;20.34;100.00;102786.22;5010079;28;20191;-33
2022/07/09 07:35:13;;;;;;;3.45;1.00;;;;;;;20.49;100.00;102794.38;5010259;28;20494;-35
2022/07/09 07:37:42;;;;;;;3.20;0.80;;;;;;;20.67;100.00;102779.19;5008982;28;20464;-34
2022/07/09 07:40:11;;;;;;;3.75;0.85;;;;;;;20.80;100.00;102792.47;5010485;28;20060;-34
2022/07/09 07:42:39;;;;;;;4.90;0.90;;;;;;;20.96;100.00;102792.94;5009352;28;20042;-34
2022/07/09 07:45:08;;;;;;;3.47;1.13;;;;;;;21.15;100.00;102789.91;5010364;28;20085;-37
2022/07/09 07:47:36;;;;;;;4.93;1.20;;;;;;;21.33;100.00;102791.72;5010081;28;20060;-35
2022/07/09 07:50:05;;;;;;;6.18;1.10;;;;;;;21.45;100.00;102783.41;5010585;28;20048;-41
2022/07/09 07:52:33;;;;;;;3.85;0.90;;;;;;;21.51;100.00;102787.78;5009507;28;20057;-34
2022/07/09 07:55:02;;;;;;;4.03;0.90;;;;;;;21.53;100.00;102788.31;4998698;28;20054;-36
2022/07/09 07:57:30;;;;;;;6.45;1.10;;;;;;;21.46;100.00;102793.63;5010642;28;20045;-35
2022/07/09 07:59:58;;;;;;;4.65;1.02;;;;;;;21.34;100.00;102790.56;5010237;28;20124;-37
2022/07/09 08:02:25;;;;;;;6.13;1.60;;;;;;;21.25;100.00;102801.84;5010141;28;20043;-34
2022/07/09 08:04:53;;;;;;;6.07;1.30;;;;;;;21.23;100.00;102809.00;5010112;28;20050;-36
2022/07/09 08:07:21;;;;;;;6.10;1.10;;;;;;;21.16;100.00;102800.09;5010112;28;20048;-33
2022/07/09 08:09:49;;;;;;;4.75;1.08;;;;;;;21.13;100.00;102806.41;5010236;28;20061;-33
2022/07/09 08:12:18;;;;;;;4.55;1.13;;;;;;;21.12;100.00;102801.91;5010670;28;20046;-38
2022/07/09 08:14:46;;;;;;;6.82;1.20;;;;;;;21.11;100.00;102808.75;5009888;28;20073;-36
2022/07/09 08:17:14;;;;;;;5.20;1.20;;;;;;;21.10;100.00;102809.91;5010698;28;20148;-35
2022/07/09 08:19:42;;;;;;;3.95;1.15;;;;;;;21.08;100.00;102806.53;5009777;28;20050;-33
2022/07/09 08:22:09;;;;;;;4.22;1.30;;;;;;;21.03;100.00;102803.84;5009198;28;20053;-33
2022/07/09 08:24:37;;;;;;;5.55;1.23;;;;;;;20.99;100.00;102798.78;5009886;28;20124;-41
2022/07/09 08:27:05;;;;;;;6.50;1.00;;;;;;;20.96;99.71;102809.97;5010104;28;20105;-34
2022/07/09 08:29:35;;;;;;;5.03;1.40;;;;;;;20.99;99.35;102804.47;5010128;28;20054;-33
2022/07/09 08:32:04;;;;;;;6.18;1.20;;;;;;;21.05;99.21;102805.19;5010753;28;20123;-39
2022/07/09 08:34:32;;;;;;;3.72;1.00;;;;;;;21.12;98.37;102811.25;5009191;28;20096;-40
2022/07/09 08:37:00;;;;;;;4.13;1.20;;;;;;;21.21;97.92;102811.34;5010492;28;20137;-39
2022/07/09 08:39:28;;;;;;;6.07;1.10;;;;;;;21.46;97.65;102819.19;5009985;28;20096;-38
2022/07/09 08:41:55;;;;;;;5.68;1.30;;;;;;;21.71;95.97;102814.78;5009217;28;20046;-38
2022/07/09 08:44:31;;;;;;;4.10;1.08;;;;;;;21.95;95.32;102815.22;5012336;28;20076;-40
2022/07/09 08:47:01;;;;;;;4.15;1.00;;;;;;;22.15;93.62;102808.13;5013958;28;20084;-42
2022/07/09 08:49:29;;;;;;;3.28;0.95;;;;;;;22.32;92.60;102808.16;5012725;28;20057;-38
2022/07/09 08:51:58;;;;;;;7.10;1.42;;;;;;;22.59;91.33;102809.00;5013769;28;20050;-36
2022/07/09 08:54:25;;;;;;;5.45;1.08;;;;;;;22.71;89.51;102805.50;5013250;28;20052;-36
2022/07/09 08:56:53;;;;;;;3.20;0.80;;;;;;;22.58;87.97;102807.34;5012900;28;20443;-37
2022/07/09 08:59:21;;;;;;;4.32;1.13;;;;;;;22.64;88.31;102811.69;5013545;28;20046;-38
2022/07/09 09:01:49;;;;;;;3.92;1.20;;;;;;;22.92;87.36;102804.53;5009215;28;20080;-40
2022/07/09 09:04:18;;;;;;;5.63;1.02;;;;;;;23.21;85.71;102805.81;5013496;28;20049;-39
2022/07/09 09:06:46;;;;;;;3.67;0.90;;;;;;;23.29;83.78;102813.50;5013188;28;20495;-33
2022/07/09 09:09:19;;;;;;;5.03;1.10;;;;;;;23.24;82.37;102805.13;5010331;28;20064;-34
2022/07/09 09:11:49;;;;;;;4.55;0.98;;;;;;;23.10;82.11;102816.72;5012721;28;20050;-34
2022/07/09 09:14:22;;;;;;;3.55;1.02;;;;;;;23.13;82.72;102813.22;5013544;28;20054;-35
2022/07/09 09:16:50;;;;;;;4.15;1.08;;;;;;;23.28;82.23;102818.38;5012536;28;20046;-36
2022/07/09 09:19:19;;;;;;;5.15;1.00;;;;;;;23.54;81.40;102815.50;5013477;28;20045;-36
2022/07/09 09:21:53;;;;;;;4.93;1.20;;;;;;;23.76;79.91;102817.25;5012896;28;20141;-37
2022/07/09 09:24:24;;;;;;;5.03;1.15;;;;;;;24.10;80.36;102821.09;4992987;28;20054;-38
2022/07/09 09:26:56;;;;;;;4.47;1.33;;;;;;;24.47;78.01;102819.38;5011300;28;20144;-33
2022/07/09 09:29:24;;;;;;;5.22;1.05;;;;;;;24.83;75.89;102822.44;5013385;28;20161;-33
2022/07/09 09:31:52;;;;;;;3.40;1.00;;;;;;;25.16;72.55;102831.09;5011815;28;20319;-41
2022/07/09 09:34:22;;;;;;;4.80;1.20;;;;;;;25.50;71.48;102826.19;5013003;28;20050;-37
2022/07/09 09:36:51;;;;;;;4.57;0.90;;;;;;;25.92;67.99;102835.47;5012238;28;20044;-34
2022/07/09 09:39:21;;;;;;;5.53;1.02;;;;;;;26.31;65.28;102826.19;5013070;28;20045;-39
2022/07/09 09:41:50;;;;;;;3.38;0.90;;;;;;;26.48;63.95;102822.22;5012774;28;20046;-34
2022/07/09 09:44:20;;;;;;;3.78;0.85;;;;;;;26.45;63.23;102825.78;5012490;28;20068;-34
2022/07/09 09:46:48;;;;;;;3.70;0.93;;;;;;;26.33;62.82;102823.78;5012330;28;20137;-35
2022/07/09 09:49:16;;;;;;;3.00;0.90;;;;;;;26.36;62.88;102822.25;5013143;28;20136;-39
2022/07/09 09:51:52;;;;;;;3.03;1.20;;;;;;;26.35;62.47;102824.28;5011555;28;20058;-34
2022/07/09 09:54:21;;;;;;;5.55;1.20;;;;;;;26.14;62.90;102826.41;5012107;28;20177;-33
2022/07/09 09:56:50;;;;;;;4.32;1.10;;;;;;;25.86;63.74;102832.00;5010178;28;20046;-34
2022/07/09 09:59:18;;;;;;;4.20;0.90;;;;;;;25.60;63.65;102832.25;5011624;28;20052;-43
2022/07/09 10:01:46;;;;;;;4.55;1.00;;;;;;;25.27;64.30;102838.03;5011781;28;20065;-41
2022/07/09 10:04:15;;;;;;;3.53;1.00;;;;;;;25.04;64.99;102840.44;5012289;28;20460;-39
2022/07/09 10:06:44;;;;;;;3.83;0.93;;;;;;;24.87;65.80;102845.44;5011667;28;20467;-33
2022/07/09 10:09:15;;;;;;;4.43;1.05;;;;;;;24.96;66.06;102840.53;5012570;28;20116;-33
2022/07/09 10:11:44;;;;;;;3.50;0.95;;;;;;;25.13;65.20;102834.66;5007403;28;20404;-39
2022/07/09 10:14:19;;;;;;;3.45;0.90;;;;;;;25.49;64.62;102844.53;5012372;28;20050;-41
2022/07/09 10:16:46;;;;;;;3.28;0.88;;;;;;;25.85;63.84;102840.91;5012970;28;20480;-35
2022/07/09 10:19:24;;;;;;;4.47;1.52;;;;;;;26.25;61.28;102844.75;5006187;28;20414;-40
2022/07/09 10:21:54;;;;;;;4.80;1.23;;;;;;;26.54;61.24;102837.13;5012704;28;20137;-39
2022/07/09 10:24:28;;;;;;;3.35;1.00;;;;;;;26.89;60.35;102848.84;5011778;28;20088;-40
2022/07/09 10:27:05;;;;;;;4.53;1.10;;;;;;;27.24;59.08;102841.31;5011865;28;20107;-41
2022/07/09 10:29:33;;;;;;;3.97;1.40;;;;;;;27.45;58.00;102841.09;5012264;28;20415;-38
2022/07/09 10:32:02;;;;;;;5.00;1.20;;;;;;;27.65;57.53;102839.19;5011338;28;20487;-41
2022/07/09 10:34:43;;;;;;;4.93;1.33;;;;;;;27.90;55.70;102842.72;5009900;28;20050;-38
2022/07/09 10:37:11;;;;;;;;;;;;;;;28.05;53.94;102847.63;5011588;28;20144;-37
2022/07/09 10:39:40;;;;;;;3.67;1.00;;;;;;;28.15;56.82;102841.34;5010014;28;19925;-38
2022/07/09 10:42:19;;;;;;;7.57;1.50;;;;;;;28.44;54.16;102840.84;5010418;28;20046;-39
2022/07/09 10:44:49;;;;;;;5.25;1.25;;;;;;;28.54;54.69;102841.47;5008179;28;20119;-40
2022/07/09 10:47:18;;;;;;;4.90;1.40;;;;;;;28.59;53.21;102847.75;5011062;28;20111;-39
2022/07/09 10:49:46;;;;;;;5.15;1.30;;;;;;;28.30;52.68;102846.25;5011970;28;20065;-42
2022/07/09 10:52:13;;;;;;;3.78;1.15;;;;;;;27.87;53.48;102849.22;5011985;28;20060;-38
2022/07/09 10:54:49;;;;;;;4.57;1.27;;;;;;;27.36;52.15;102841.28;5010908;28;20485;-39
2022/07/09 10:57:17;;;;;;;6.82;1.20;;;;;;;26.92;54.07;102851.81;5012113;28;20432;-41
2022/07/09 10:59:48;;;;;;;6.03;1.20;;;;;;;26.64;53.91;102850.94;5011776;28;20050;-41
2022/07/09 11:02:20;;;;;;;4.57;1.35;;;;;;;26.38;54.05;102854.19;5011349;28;20074;-33
2022/07/09 11:04:53;;;;;;;6.07;1.10;;;;;;;26.15;54.15;102865.28;5011517;28;20487;-39
2022/07/09 11:07:22;;;;;;;4.95;1.00;;;;;;;25.96;54.73;102867.91;5011469;28;20054;-43
2022/07/09 11:09:53;;;;;;;5.20;0.90;;;;;;;25.76;54.16;102855.34;5010929;28;20041;-38
2022/07/09 11:12:22;;;;;;;4.13;1.20;;;;;;;25.46;54.07;102865.25;5010525;28;20613;-39
2022/07/09 11:14:51;;;;;;;5.38;1.00;;;;;;;25.35;54.85;102867.72;5011086;28;20072;-39
2022/07/09 11:17:21;;;;;;;3.83;0.80;;;;;;;25.41;54.33;102863.44;5011355;28;20053;-39
2022/07/09 11:19:49;;;;;;;4.68;1.08;;;;;;;25.51;54.06;102863.00;5011320;28;20614;-37
2022/07/09 11:22:17;;;;;;;3.33;0.95;;;;;;;25.82;53.69;102870.22;5010765;28;20097;-38
2022/07/09 11:24:45;;;;;;;4.18;0.95;;;;;;;26.04;52.25;102878.38;5010927;28;20132;-37
2022/07/09 11:27:14;;;;;;;4.07;1.08;;;;;;;26.21;50.41;102871.56;5011675;28;20241;-37